createdAt,value
2017-09-04T00:00:11.988Z,1009.11
2017-09-04T00:00:52.526Z,1009.12
2017-09-04T00:01:33.061Z,1009.1
2017-09-04T00:02:13.582Z,1009.12
2017-09-04T00:02:54.124Z,1009.11
2017-09-04T00:03:34.661Z,1009.12
2017-09-04T00:04:15.199Z,1009.15
2017-09-04T00:04:55.724Z,1009.13
2017-09-04T00:05:36.281Z,1009.12
2017-09-04T00:06:16.787Z,1009.12
2017-09-04T00:06:57.331Z,1009.16
2017-09-04T00:07:37.854Z,1009.11
2017-09-04T00:08:18.413Z,1009.15
2017-09-04T00:08:58.945Z,1009.13
2017-09-04T00:09:39.475Z,1009.11
2017-09-04T00:10:20.006Z,1009.17
2017-09-04T00:11:00.520Z,1009.13
2017-09-04T00:11:41.060Z,1009.13
2017-09-04T00:12:21.598Z,1009.11
2017-09-04T00:13:02.132Z,1009.08
2017-09-04T00:13:42.639Z,1009.1
2017-09-04T00:14:23.187Z,1009.1
2017-09-04T00:15:03.710Z,1009.09
2017-09-04T00:15:44.248Z,1009.12
2017-09-04T00:16:24.777Z,1009.13
2017-09-04T00:17:05.293Z,1009.08
2017-09-04T00:17:45.936Z,1009.11
2017-09-04T00:18:26.433Z,1009.1
2017-09-04T00:19:07.028Z,1009.12
2017-09-04T00:19:47.579Z,1009.07
2017-09-04T00:20:28.237Z,1009.03
2017-09-04T00:21:08.790Z,1009.05
2017-09-04T00:21:50.009Z,1009.04
2017-09-04T00:22:30.519Z,1009.08
2017-09-04T00:23:11.046Z,1009.06
2017-09-04T00:23:51.694Z,1009.05
2017-09-04T00:24:32.267Z,1009.04
2017-09-04T00:25:12.791Z,1009.04
2017-09-04T00:25:53.324Z,1009.02
2017-09-04T00:26:33.864Z,1009.03
2017-09-04T00:27:14.404Z,1008.98
2017-09-04T00:27:55.105Z,1008.97
2017-09-04T00:28:36.040Z,1008.97
2017-09-04T00:29:16.604Z,1008.97
2017-09-04T00:29:57.096Z,1008.96
2017-09-04T00:30:37.612Z,1008.95
2017-09-04T00:31:18.153Z,1008.93
2017-09-04T00:31:58.679Z,1008.96
2017-09-04T00:32:39.215Z,1008.91
2017-09-04T00:33:19.742Z,1008.97
2017-09-04T00:34:00.290Z,1008.98
2017-09-04T00:34:40.803Z,1008.99
2017-09-04T00:35:21.329Z,1008.95
2017-09-04T00:36:01.846Z,1008.97
2017-09-04T00:36:42.393Z,1008.99
2017-09-04T00:37:22.922Z,1008.98
2017-09-04T00:38:03.465Z,1008.97
2017-09-04T00:38:44.006Z,1008.98
2017-09-04T00:39:24.532Z,1008.99
2017-09-04T00:40:05.073Z,1009.01
2017-09-04T00:40:45.635Z,1008.97
2017-09-04T00:41:26.179Z,1008.96
2017-09-04T00:42:06.712Z,1008.98
2017-09-04T00:42:47.240Z,1008.96
2017-09-04T00:43:27.794Z,1008.99
2017-09-04T00:44:08.317Z,1008.96
2017-09-04T00:44:48.861Z,1008.96
2017-09-04T00:45:29.376Z,1008.97
2017-09-04T00:46:09.902Z,1008.93
2017-09-04T00:46:50.437Z,1008.94
2017-09-04T00:47:30.973Z,1008.93
2017-09-04T00:48:11.514Z,1008.92
2017-09-04T00:48:52.052Z,1008.93
2017-09-04T00:49:32.590Z,1008.92
2017-09-04T00:50:13.112Z,1008.94
2017-09-04T00:50:53.691Z,1008.92
2017-09-04T00:51:34.209Z,1008.92
2017-09-04T00:52:14.777Z,1008.91
2017-09-04T00:52:55.242Z,1008.95
2017-09-04T00:53:35.784Z,1008.95
2017-09-04T00:54:16.303Z,1008.92
2017-09-04T00:54:56.867Z,1008.94
2017-09-04T00:55:37.380Z,1008.94
2017-09-04T00:56:17.894Z,1008.95
2017-09-04T00:56:58.419Z,1008.93
2017-09-04T00:57:38.942Z,1008.92
2017-09-04T00:58:19.478Z,1008.97
2017-09-04T00:59:00.007Z,1008.94
2017-09-04T00:59:40.560Z,1008.94
2017-09-04T01:00:21.098Z,1008.98
2017-09-04T01:01:01.649Z,1008.94
2017-09-04T01:01:42.164Z,1008.93
2017-09-04T01:02:22.708Z,1008.94
2017-09-04T01:03:03.233Z,1008.93
2017-09-04T01:03:43.774Z,1008.91
2017-09-04T01:04:24.303Z,1008.89
2017-09-04T01:05:04.830Z,1008.9
2017-09-04T01:05:45.357Z,1008.87
2017-09-04T01:06:25.885Z,1008.9
2017-09-04T01:07:06.422Z,1008.91
2017-09-04T01:07:46.964Z,1008.89
2017-09-04T01:08:27.531Z,1008.9
2017-09-04T01:09:08.072Z,1008.89
2017-09-04T01:09:48.600Z,1008.9
2017-09-04T01:10:29.161Z,1008.91
2017-09-04T01:11:09.706Z,1008.9
2017-09-04T01:11:50.250Z,1008.89
2017-09-04T01:12:30.811Z,1008.95
2017-09-04T01:13:11.339Z,1008.95
2017-09-04T01:13:51.869Z,1008.98
2017-09-04T01:14:32.433Z,1008.96
2017-09-04T01:15:13.013Z,1008.96
2017-09-04T01:15:53.534Z,1008.96
2017-09-04T01:16:34.078Z,1008.98
2017-09-04T01:17:14.617Z,1009.03
2017-09-04T01:17:55.146Z,1009.02
2017-09-04T01:18:35.692Z,1009.03
2017-09-04T01:19:16.231Z,1008.99
2017-09-04T01:19:56.766Z,1008.99
2017-09-04T01:20:37.314Z,1009
2017-09-04T01:21:17.828Z,1008.99
2017-09-04T01:21:58.344Z,1008.98
2017-09-04T01:22:38.869Z,1008.95
2017-09-04T01:23:19.388Z,1008.94
2017-09-04T01:23:59.903Z,1008.97
2017-09-04T01:24:40.444Z,1008.95
2017-09-04T01:25:20.964Z,1008.96
2017-09-04T01:26:01.475Z,1008.95
2017-09-04T01:26:42.003Z,1008.95
2017-09-04T01:27:22.547Z,1008.95
2017-09-04T01:28:03.086Z,1008.94
2017-09-04T01:28:43.606Z,1008.95
2017-09-04T01:29:24.177Z,1008.95
2017-09-04T01:30:04.687Z,1008.94
2017-09-04T01:30:45.230Z,1008.93
2017-09-04T01:31:25.767Z,1008.93
2017-09-04T01:32:06.332Z,1008.94
2017-09-04T01:32:46.828Z,1008.93
2017-09-04T01:33:27.321Z,1008.95
2017-09-04T01:34:07.861Z,1008.92
2017-09-04T01:34:48.420Z,1008.92
2017-09-04T01:35:28.979Z,1008.88
2017-09-04T01:36:09.478Z,1008.9
2017-09-04T01:36:50.015Z,1008.91
2017-09-04T01:37:30.536Z,1008.9
2017-09-04T01:38:11.064Z,1008.9
2017-09-04T01:38:51.599Z,1008.9
2017-09-04T01:39:32.130Z,1008.89
2017-09-04T01:40:12.667Z,1008.92
2017-09-04T01:40:53.222Z,1008.91
2017-09-04T01:41:33.745Z,1008.87
2017-09-04T01:42:14.288Z,1008.87
2017-09-04T01:42:54.816Z,1008.88
2017-09-04T01:43:35.376Z,1008.92
2017-09-04T01:44:15.914Z,1008.9
2017-09-04T01:44:56.457Z,1008.92
2017-09-04T01:45:36.995Z,1008.9
2017-09-04T01:46:17.549Z,1008.94
2017-09-04T01:46:58.115Z,1008.94
2017-09-04T01:47:38.646Z,1008.94
2017-09-04T01:48:19.179Z,1008.92
2017-09-04T01:48:59.733Z,1008.95
2017-09-04T01:49:40.256Z,1008.93
2017-09-04T01:50:20.786Z,1008.95
2017-09-04T01:51:01.341Z,1008.95
2017-09-04T01:51:41.856Z,1008.95
2017-09-04T01:52:22.427Z,1008.97
2017-09-04T01:53:02.969Z,1008.96
2017-09-04T01:53:43.530Z,1008.96
2017-09-04T01:54:24.105Z,1008.95
2017-09-04T01:55:04.630Z,1008.94
2017-09-04T01:55:45.171Z,1008.92
2017-09-04T01:56:25.688Z,1008.93
2017-09-04T01:57:06.735Z,1008.94
2017-09-04T01:57:47.403Z,1008.93
2017-09-04T01:58:27.930Z,1008.95
2017-09-04T01:59:08.446Z,1008.92
2017-09-04T01:59:48.999Z,1008.93
2017-09-04T02:00:29.540Z,1008.93
2017-09-04T02:01:10.066Z,1008.9
2017-09-04T02:01:50.587Z,1008.91
2017-09-04T02:02:31.117Z,1008.94
2017-09-04T02:03:11.645Z,1008.9
2017-09-04T02:03:52.171Z,1008.89
2017-09-04T02:04:32.702Z,1008.9
2017-09-04T02:05:13.246Z,1008.9
2017-09-04T02:05:53.784Z,1008.93
2017-09-04T02:06:34.315Z,1008.92
2017-09-04T02:07:14.850Z,1008.88
2017-09-04T02:07:55.373Z,1008.89
2017-09-04T02:08:35.884Z,1008.89
2017-09-04T02:09:16.416Z,1008.91
2017-09-04T02:09:56.958Z,1008.86
2017-09-04T02:10:37.474Z,1008.87
2017-09-04T02:11:18.028Z,1008.91
2017-09-04T02:11:58.560Z,1008.91
2017-09-04T02:12:39.113Z,1008.88
2017-09-04T02:13:19.685Z,1008.88
2017-09-04T02:14:00.225Z,1008.89
2017-09-04T02:14:40.739Z,1008.93
2017-09-04T02:15:21.262Z,1008.93
2017-09-04T02:16:01.790Z,1008.89
2017-09-04T02:16:42.327Z,1008.89
2017-09-04T02:17:22.882Z,1008.92
2017-09-04T02:18:03.395Z,1008.89
2017-09-04T02:18:43.938Z,1008.88
2017-09-04T02:19:24.495Z,1008.87
2017-09-04T02:20:05.012Z,1008.89
2017-09-04T02:20:45.533Z,1008.9
2017-09-04T02:21:26.049Z,1008.84
2017-09-04T02:22:06.576Z,1008.87
2017-09-04T02:22:47.116Z,1008.87
2017-09-04T02:23:27.682Z,1008.86
2017-09-04T02:24:08.212Z,1008.88
2017-09-04T02:24:48.737Z,1008.89
2017-09-04T02:25:29.253Z,1008.84
2017-09-04T02:26:09.784Z,1008.84
2017-09-04T02:26:50.320Z,1008.84
2017-09-04T02:27:30.867Z,1008.83
2017-09-04T02:28:11.453Z,1008.88
2017-09-04T02:28:52.003Z,1008.86
2017-09-04T02:29:39.110Z,1008.9
2017-09-04T02:30:19.635Z,1008.92
2017-09-04T02:31:00.172Z,1008.93
2017-09-04T02:31:40.706Z,1008.92
2017-09-04T02:32:21.244Z,1008.9
2017-09-04T02:33:01.764Z,1008.92
2017-09-04T02:33:42.322Z,1008.89
2017-09-04T02:34:22.854Z,1008.9
2017-09-04T02:35:03.404Z,1008.92
2017-09-04T02:35:43.921Z,1008.89
2017-09-04T02:36:24.458Z,1008.92
2017-09-04T02:37:05.033Z,1008.89
2017-09-04T02:37:45.580Z,1008.92
2017-09-04T02:38:26.113Z,1008.92
2017-09-04T02:39:06.645Z,1008.91
2017-09-04T02:39:47.186Z,1008.9
2017-09-04T02:40:27.721Z,1008.86
2017-09-04T02:41:08.263Z,1008.86
2017-09-04T02:41:48.828Z,1008.87
2017-09-04T02:42:29.329Z,1008.85
2017-09-04T02:43:09.864Z,1008.9
2017-09-04T02:43:50.403Z,1008.89
2017-09-04T02:44:30.925Z,1008.93
2017-09-04T02:45:11.461Z,1008.9
2017-09-04T02:45:51.998Z,1008.88
2017-09-04T02:46:32.532Z,1008.87
2017-09-04T02:47:13.064Z,1008.85
2017-09-04T02:47:53.597Z,1008.9
2017-09-04T02:48:34.126Z,1008.85
2017-09-04T02:49:14.654Z,1008.82
2017-09-04T02:49:55.189Z,1008.82
2017-09-04T02:50:35.709Z,1008.8
2017-09-04T02:51:16.233Z,1008.8
2017-09-04T02:51:56.766Z,1008.78
2017-09-04T02:52:37.300Z,1008.79
2017-09-04T02:53:17.850Z,1008.79
2017-09-04T02:53:58.383Z,1008.84
2017-09-04T02:54:38.922Z,1008.8
2017-09-04T02:55:19.433Z,1008.78
2017-09-04T02:55:59.963Z,1008.79
2017-09-04T02:56:40.486Z,1008.77
2017-09-04T02:57:21.047Z,1008.78
2017-09-04T02:58:01.568Z,1008.8
2017-09-04T02:58:42.087Z,1008.79
2017-09-04T02:59:22.609Z,1008.78
2017-09-04T03:00:03.142Z,1008.78
2017-09-04T03:00:43.678Z,1008.77
2017-09-04T03:01:24.214Z,1008.77
2017-09-04T03:02:04.753Z,1008.79
2017-09-04T03:02:45.288Z,1008.8
2017-09-04T03:03:25.821Z,1008.82
2017-09-04T03:04:06.359Z,1008.78
2017-09-04T03:04:46.911Z,1008.81
2017-09-04T03:05:27.447Z,1008.78
2017-09-04T03:06:07.986Z,1008.79
2017-09-04T03:06:48.522Z,1008.79
2017-09-04T03:07:29.058Z,1008.8
2017-09-04T03:08:09.577Z,1008.83
2017-09-04T03:08:50.131Z,1008.8
2017-09-04T03:09:30.652Z,1008.8
2017-09-04T03:10:11.179Z,1008.82
2017-09-04T03:10:51.723Z,1008.81
2017-09-04T03:11:32.268Z,1008.85
2017-09-04T03:12:12.789Z,1008.84
2017-09-04T03:12:53.311Z,1008.85
2017-09-04T03:13:33.841Z,1008.88
2017-09-04T03:14:14.385Z,1008.88
2017-09-04T03:14:54.893Z,1008.9
2017-09-04T03:15:35.444Z,1008.85
2017-09-04T03:16:15.953Z,1008.88
2017-09-04T03:16:56.488Z,1008.88
2017-09-04T03:17:37.019Z,1008.9
2017-09-04T03:18:17.547Z,1008.87
2017-09-04T03:18:58.094Z,1008.86
2017-09-04T03:19:38.601Z,1008.84
2017-09-04T03:20:19.131Z,1008.86
2017-09-04T03:20:59.648Z,1008.85
2017-09-04T03:21:40.185Z,1008.86
2017-09-04T03:22:20.735Z,1008.83
2017-09-04T03:23:01.276Z,1008.84
2017-09-04T03:23:41.811Z,1008.83
2017-09-04T03:24:22.346Z,1008.85
2017-09-04T03:25:02.928Z,1008.82
2017-09-04T03:25:43.466Z,1008.81
2017-09-04T03:26:24.021Z,1008.84
2017-09-04T03:27:04.537Z,1008.83
2017-09-04T03:27:45.077Z,1008.85
2017-09-04T03:28:25.604Z,1008.82
2017-09-04T03:29:06.134Z,1008.82
2017-09-04T03:29:46.654Z,1008.81
2017-09-04T03:30:27.179Z,1008.79
2017-09-04T03:31:07.715Z,1008.8
2017-09-04T03:31:48.256Z,1008.76
2017-09-04T03:32:28.765Z,1008.75
2017-09-04T03:33:09.293Z,1008.76
2017-09-04T03:33:49.886Z,1008.74
2017-09-04T03:34:30.414Z,1008.76
2017-09-04T03:35:10.949Z,1008.74
2017-09-04T03:35:51.496Z,1008.73
2017-09-04T03:36:32.010Z,1008.71
2017-09-04T03:37:12.551Z,1008.72
2017-09-04T03:37:53.067Z,1008.73
2017-09-04T03:38:33.594Z,1008.77
2017-09-04T03:39:14.146Z,1008.76
2017-09-04T03:39:54.694Z,1008.76
2017-09-04T03:40:35.249Z,1008.76
2017-09-04T03:41:15.796Z,1008.79
2017-09-04T03:41:56.319Z,1008.76
2017-09-04T03:42:36.842Z,1008.76
2017-09-04T03:43:17.382Z,1008.77
2017-09-04T03:43:57.899Z,1008.78
2017-09-04T03:44:38.420Z,1008.82
2017-09-04T03:45:18.977Z,1008.85
2017-09-04T03:45:59.536Z,1008.84
2017-09-04T03:46:40.048Z,1008.87
2017-09-04T03:47:20.583Z,1008.82
2017-09-04T03:48:01.105Z,1008.84
2017-09-04T03:48:41.642Z,1008.83
2017-09-04T03:49:22.175Z,1008.83
2017-09-04T03:50:02.695Z,1008.84
2017-09-04T03:50:43.224Z,1008.84
2017-09-04T03:51:23.762Z,1008.88
2017-09-04T03:52:04.284Z,1008.89
2017-09-04T03:52:44.811Z,1008.92
2017-09-04T03:53:25.377Z,1008.91
2017-09-04T03:54:05.907Z,1008.92
2017-09-04T03:54:46.455Z,1008.92
2017-09-04T03:55:27.000Z,1008.92
2017-09-04T03:56:07.535Z,1008.97
2017-09-04T03:56:48.105Z,1008.95
2017-09-04T03:57:28.608Z,1008.95
2017-09-04T03:58:09.142Z,1008.92
2017-09-04T03:58:49.673Z,1008.95
2017-09-04T03:59:30.221Z,1008.94
2017-09-04T04:00:10.737Z,1008.98
2017-09-04T04:00:51.274Z,1008.97
2017-09-04T04:01:31.822Z,1008.97
2017-09-04T04:02:12.324Z,1008.98
2017-09-04T04:02:52.861Z,1009.02
2017-09-04T04:03:33.395Z,1008.98
2017-09-04T04:04:13.934Z,1009.01
2017-09-04T04:04:54.472Z,1009.02
2017-09-04T04:05:35.001Z,1009.02
2017-09-04T04:06:15.537Z,1009.06
2017-09-04T04:06:56.102Z,1009.04
2017-09-04T04:07:36.633Z,1009.04
2017-09-04T04:08:17.172Z,1009.05
2017-09-04T04:08:57.707Z,1009.08
2017-09-04T04:09:38.251Z,1009.07
2017-09-04T04:10:18.779Z,1009.08
2017-09-04T04:10:59.314Z,1009.1
2017-09-04T04:11:39.863Z,1009.08
2017-09-04T04:12:20.387Z,1009.1
2017-09-04T04:13:00.897Z,1009.08
2017-09-04T04:13:41.432Z,1009.09
2017-09-04T04:14:21.973Z,1009.07
2017-09-04T04:15:02.491Z,1009.08
2017-09-04T04:15:43.039Z,1009.1
2017-09-04T04:16:23.571Z,1009.09
2017-09-04T04:17:04.101Z,1009.11
2017-09-04T04:17:44.636Z,1009.09
2017-09-04T04:18:25.173Z,1009.09
2017-09-04T04:19:05.714Z,1009.08
2017-09-04T04:19:46.248Z,1009.11
2017-09-04T04:20:26.781Z,1009.08
2017-09-04T04:21:07.315Z,1009.03
2017-09-04T04:21:47.870Z,1009.08
2017-09-04T04:22:28.403Z,1009.07
2017-09-04T04:23:08.949Z,1009.04
2017-09-04T04:23:49.470Z,1009.02
2017-09-04T04:24:30.009Z,1009.06
2017-09-04T04:25:10.536Z,1009.04
2017-09-04T04:25:51.068Z,1008.97
2017-09-04T04:26:31.606Z,1008.99
2017-09-04T04:27:12.134Z,1008.98
2017-09-04T04:27:52.670Z,1008.98
2017-09-04T04:28:33.200Z,1008.98
2017-09-04T04:29:14.036Z,1008.94
2017-09-04T04:29:54.617Z,1008.99
2017-09-04T04:30:35.145Z,1008.95
2017-09-04T04:31:15.674Z,1008.94
2017-09-04T04:31:56.211Z,1008.96
2017-09-04T04:32:36.744Z,1008.97
2017-09-04T04:33:17.279Z,1008.97
2017-09-04T04:33:57.824Z,1008.99
2017-09-04T04:34:38.350Z,1009.01
2017-09-04T04:35:18.876Z,1009
2017-09-04T04:35:59.419Z,1008.99
2017-09-04T04:36:39.937Z,1008.99
2017-09-04T04:37:20.443Z,1009.03
2017-09-04T04:38:00.974Z,1009.01
2017-09-04T04:38:41.514Z,1009
2017-09-04T04:39:23.653Z,1009
2017-09-04T04:40:04.194Z,1009.03
2017-09-04T04:40:44.658Z,1009.03
2017-09-04T04:41:25.195Z,1009.04
2017-09-04T04:42:05.755Z,1009.06
2017-09-04T04:42:46.260Z,1009.05
2017-09-04T04:43:26.775Z,1009.08
2017-09-04T04:44:07.303Z,1009.05
2017-09-04T04:44:47.853Z,1009.06
2017-09-04T04:45:28.372Z,1009.05
2017-09-04T04:46:08.934Z,1009.1
2017-09-04T04:46:49.500Z,1009.12
2017-09-04T04:47:29.992Z,1009.09
2017-09-04T04:48:10.529Z,1009.12
2017-09-04T04:48:51.056Z,1009.11
2017-09-04T04:49:31.565Z,1009.12
2017-09-04T04:50:12.084Z,1009.12
2017-09-04T04:50:52.609Z,1009.13
2017-09-04T04:51:33.137Z,1009.09
2017-09-04T04:52:13.677Z,1009.11
2017-09-04T04:52:54.230Z,1009.11
2017-09-04T04:53:34.764Z,1009.1
2017-09-04T04:54:15.249Z,1009.11
2017-09-04T04:54:55.787Z,1009.13
2017-09-04T04:55:36.299Z,1009.11
2017-09-04T04:56:16.814Z,1009.13
2017-09-04T04:56:57.309Z,1009.15
2017-09-04T04:57:37.884Z,1009.15
2017-09-04T04:58:18.467Z,1009.17
2017-09-04T04:58:58.993Z,1009.16
2017-09-04T04:59:39.528Z,1009.22
2017-09-04T05:00:20.059Z,1009.21
2017-09-04T05:01:00.603Z,1009.19
2017-09-04T05:01:41.117Z,1009.17
2017-09-04T05:02:21.613Z,1009.16
2017-09-04T05:03:02.109Z,1009.14
2017-09-04T05:03:42.570Z,1009.21
2017-09-04T05:04:23.105Z,1009.17
2017-09-04T05:05:03.629Z,1009.19
2017-09-04T05:05:44.151Z,1009.17
2017-09-04T05:06:24.669Z,1009.22
2017-09-04T05:07:05.205Z,1009.2
2017-09-04T05:07:45.745Z,1009.18
2017-09-04T05:08:26.273Z,1009.21
2017-09-04T05:09:06.806Z,1009.22
2017-09-04T05:09:47.316Z,1009.21
2017-09-04T05:10:27.851Z,1009.2
2017-09-04T05:11:08.383Z,1009.17
2017-09-04T05:11:48.918Z,1009.18
2017-09-04T05:12:29.452Z,1009.18
2017-09-04T05:13:09.975Z,1009.18
2017-09-04T05:13:50.510Z,1009.2
2017-09-04T05:14:31.042Z,1009.2
2017-09-04T05:15:11.580Z,1009.2
2017-09-04T05:15:52.105Z,1009.26
2017-09-04T05:16:32.624Z,1009.25
2017-09-04T05:17:13.166Z,1009.26
2017-09-04T05:17:53.685Z,1009.23
2017-09-04T05:18:34.325Z,1009.23
2017-09-04T05:19:14.861Z,1009.26
2017-09-04T05:19:55.390Z,1009.28
2017-09-04T05:20:35.918Z,1009.27
2017-09-04T05:21:16.482Z,1009.3
2017-09-04T05:21:56.997Z,1009.33
2017-09-04T05:22:37.510Z,1009.3
2017-09-04T05:23:17.994Z,1009.35
2017-09-04T05:23:58.477Z,1009.32
2017-09-04T05:24:39.026Z,1009.29
2017-09-04T05:25:19.574Z,1009.35
2017-09-04T05:26:00.082Z,1009.29
2017-09-04T05:26:40.615Z,1009.31
2017-09-04T05:27:21.150Z,1009.29
2017-09-04T05:28:01.680Z,1009.27
2017-09-04T05:28:42.190Z,1009.24
2017-09-04T05:29:22.716Z,1009.26
2017-09-04T05:30:03.231Z,1009.27
2017-09-04T05:30:43.744Z,1009.27
2017-09-04T05:31:24.225Z,1009.27
2017-09-04T05:32:04.722Z,1009.26
2017-09-04T05:32:45.260Z,1009.28
2017-09-04T05:33:25.782Z,1009.28
2017-09-04T05:34:06.333Z,1009.25
2017-09-04T05:34:46.847Z,1009.29
2017-09-04T05:35:27.389Z,1009.28
2017-09-04T05:36:07.924Z,1009.32
2017-09-04T05:36:48.469Z,1009.32
2017-09-04T05:37:29.016Z,1009.29
2017-09-04T05:38:09.534Z,1009.29
2017-09-04T05:38:50.067Z,1009.31
2017-09-04T05:39:30.592Z,1009.33
2017-09-04T05:40:11.118Z,1009.31
2017-09-04T05:40:51.634Z,1009.31
2017-09-04T05:41:32.185Z,1009.3
2017-09-04T05:42:12.686Z,1009.32
2017-09-04T05:42:53.218Z,1009.32
2017-09-04T05:43:33.704Z,1009.32
2017-09-04T05:44:14.257Z,1009.34
2017-09-04T05:44:54.789Z,1009.31
2017-09-04T05:45:35.315Z,1009.35
2017-09-04T05:46:15.825Z,1009.35
2017-09-04T05:46:56.356Z,1009.34
2017-09-04T05:47:36.904Z,1009.37
2017-09-04T05:48:17.438Z,1009.36
2017-09-04T05:48:57.975Z,1009.37
2017-09-04T05:49:38.507Z,1009.39
2017-09-04T05:50:19.077Z,1009.4
2017-09-04T05:50:59.583Z,1009.4
2017-09-04T05:51:40.112Z,1009.37
2017-09-04T05:52:20.650Z,1009.41
2017-09-04T05:53:01.189Z,1009.4
2017-09-04T05:53:41.724Z,1009.32
2017-09-04T05:54:22.272Z,1009.35
2017-09-04T05:55:02.796Z,1009.37
2017-09-04T05:55:43.325Z,1009.37
2017-09-04T05:56:23.864Z,1009.35
2017-09-04T05:57:04.409Z,1009.35
2017-09-04T05:57:44.934Z,1009.39
2017-09-04T05:58:25.482Z,1009.36
2017-09-04T05:59:05.998Z,1009.37
2017-09-04T05:59:46.512Z,1009.37
2017-09-04T06:00:27.054Z,1009.39
2017-09-04T06:01:07.590Z,1009.35
2017-09-04T06:01:48.104Z,1009.38
2017-09-04T06:02:28.639Z,1009.34
2017-09-04T06:03:09.165Z,1009.32
2017-09-04T06:03:49.711Z,1009.31
2017-09-04T06:04:30.234Z,1009.32
2017-09-04T06:05:10.773Z,1009.33
2017-09-04T06:05:51.293Z,1009.31
2017-09-04T06:06:31.820Z,1009.31
2017-09-04T06:07:12.374Z,1009.34
2017-09-04T06:07:52.911Z,1009.3
2017-09-04T06:08:33.446Z,1009.36
2017-09-04T06:09:13.980Z,1009.34
2017-09-04T06:09:54.531Z,1009.35
2017-09-04T06:10:35.078Z,1009.35
2017-09-04T06:11:15.606Z,1009.34
2017-09-04T06:11:56.150Z,1009.31
2017-09-04T06:12:36.669Z,1009.27
2017-09-04T06:13:17.204Z,1009.28
2017-09-04T06:13:57.742Z,1009.31
2017-09-04T06:14:38.255Z,1009.32
2017-09-04T06:15:18.792Z,1009.31
2017-09-04T06:15:59.331Z,1009.3
2017-09-04T06:16:39.866Z,1009.29
2017-09-04T06:17:20.396Z,1009.28
2017-09-04T06:18:00.944Z,1009.3
2017-09-04T06:18:41.462Z,1009.25
2017-09-04T06:19:21.999Z,1009.24
2017-09-04T06:20:02.524Z,1009.22
2017-09-04T06:20:43.063Z,1009.21
2017-09-04T06:21:23.585Z,1009.21
2017-09-04T06:22:04.117Z,1009.19
2017-09-04T06:22:44.658Z,1009.23
2017-09-04T06:23:25.172Z,1009.21
2017-09-04T06:24:05.708Z,1009.24
2017-09-04T06:24:46.244Z,1009.25
2017-09-04T06:25:26.777Z,1009.22
2017-09-04T06:26:07.313Z,1009.26
2017-09-04T06:26:47.831Z,1009.24
2017-09-04T06:27:28.368Z,1009.26
2017-09-04T06:28:08.903Z,1009.27
2017-09-04T06:28:49.439Z,1009.25
2017-09-04T06:29:29.967Z,1009.24
2017-09-04T06:30:10.496Z,1009.24
2017-09-04T06:30:51.026Z,1009.26
2017-09-04T06:31:31.553Z,1009.24
2017-09-04T06:32:12.070Z,1009.26
2017-09-04T06:32:52.616Z,1009.3
2017-09-04T06:33:33.136Z,1009.25
2017-09-04T06:34:13.664Z,1009.32
2017-09-04T06:34:54.189Z,1009.3
2017-09-04T06:35:34.711Z,1009.32
2017-09-04T06:36:15.262Z,1009.35
2017-09-04T06:36:55.783Z,1009.35
2017-09-04T06:37:36.309Z,1009.33
2017-09-04T06:38:16.827Z,1009.38
2017-09-04T06:38:57.362Z,1009.34
2017-09-04T06:39:37.889Z,1009.36
2017-09-04T06:40:18.432Z,1009.4
2017-09-04T06:40:58.989Z,1009.37
2017-09-04T06:41:39.521Z,1009.4
2017-09-04T06:42:20.060Z,1009.38
2017-09-04T06:43:00.590Z,1009.39
2017-09-04T06:43:41.125Z,1009.4
2017-09-04T06:44:21.658Z,1009.42
2017-09-04T06:45:02.199Z,1009.42
2017-09-04T06:45:42.738Z,1009.48
2017-09-04T06:46:23.278Z,1009.43
2017-09-04T06:47:03.816Z,1009.47
2017-09-04T06:47:44.356Z,1009.46
2017-09-04T06:48:24.885Z,1009.51
2017-09-04T06:49:05.421Z,1009.52
2017-09-04T06:49:45.952Z,1009.53
2017-09-04T06:50:26.491Z,1009.54
2017-09-04T06:51:07.026Z,1009.58
2017-09-04T06:51:47.570Z,1009.55
2017-09-04T06:52:28.107Z,1009.57
2017-09-04T06:53:08.638Z,1009.57
2017-09-04T06:53:49.196Z,1009.55
2017-09-04T06:54:29.718Z,1009.56
2017-09-04T06:55:10.293Z,1009.56
2017-09-04T06:55:50.820Z,1009.55
2017-09-04T06:56:31.367Z,1009.57
2017-09-04T06:57:11.907Z,1009.54
2017-09-04T06:57:52.439Z,1009.52
2017-09-04T06:58:32.972Z,1009.55
2017-09-04T06:59:13.554Z,1009.53
2017-09-04T06:59:54.089Z,1009.54
2017-09-04T07:00:34.630Z,1009.55
2017-09-04T07:01:15.184Z,1009.55
2017-09-04T07:01:55.709Z,1009.57
2017-09-04T07:02:36.241Z,1009.56
2017-09-04T07:03:16.773Z,1009.55
2017-09-04T07:03:57.309Z,1009.56
2017-09-04T07:04:37.849Z,1009.55
2017-09-04T07:05:18.384Z,1009.59
2017-09-04T07:05:58.907Z,1009.58
2017-09-04T07:06:39.450Z,1009.57
2017-09-04T07:07:20.046Z,1009.62
2017-09-04T07:08:00.563Z,1009.59
2017-09-04T07:08:41.097Z,1009.62
2017-09-04T07:09:21.632Z,1009.62
2017-09-04T07:10:02.171Z,1009.67
2017-09-04T07:10:42.715Z,1009.67
2017-09-04T07:11:23.249Z,1009.72
2017-09-04T07:12:03.792Z,1009.7
2017-09-04T07:12:44.309Z,1009.72
2017-09-04T07:13:24.848Z,1009.75
2017-09-04T07:14:05.384Z,1009.74
2017-09-04T07:14:45.921Z,1009.77
2017-09-04T07:15:26.450Z,1009.81
2017-09-04T07:16:06.981Z,1009.81
2017-09-04T07:16:47.513Z,1009.83
2017-09-04T07:17:28.052Z,1009.83
2017-09-04T07:18:08.609Z,1009.82
2017-09-04T07:18:49.125Z,1009.85
2017-09-04T07:19:29.689Z,1009.86
2017-09-04T07:20:10.223Z,1009.85
2017-09-04T07:20:50.755Z,1009.81
2017-09-04T07:21:31.308Z,1009.88
2017-09-04T07:22:11.841Z,1009.9
2017-09-04T07:22:52.373Z,1009.86
2017-09-04T07:23:32.911Z,1009.87
2017-09-04T07:24:13.443Z,1009.88
2017-09-04T07:24:53.983Z,1009.91
2017-09-04T07:25:34.522Z,1009.86
2017-09-04T07:26:15.051Z,1009.84
2017-09-04T07:26:55.583Z,1009.86
2017-09-04T07:27:36.116Z,1009.88
2017-09-04T07:28:16.647Z,1009.82
2017-09-04T07:28:57.185Z,1009.83
2017-09-04T07:29:37.704Z,1009.87
2017-09-04T07:30:18.247Z,1009.89
2017-09-04T07:30:58.770Z,1009.86
2017-09-04T07:31:39.307Z,1009.89
2017-09-04T07:32:19.827Z,1009.94
2017-09-04T07:33:00.365Z,1009.92
2017-09-04T07:33:40.905Z,1009.91
2017-09-04T07:34:21.439Z,1009.9
2017-09-04T07:35:01.976Z,1009.93
2017-09-04T07:35:42.512Z,1009.9
2017-09-04T07:36:23.052Z,1009.95
2017-09-04T07:37:03.590Z,1009.95
2017-09-04T07:37:44.146Z,1009.89
2017-09-04T07:38:24.681Z,1009.87
2017-09-04T07:39:05.221Z,1009.9
2017-09-04T07:39:45.760Z,1009.92
2017-09-04T07:40:26.292Z,1009.93
2017-09-04T07:41:06.842Z,1009.93
2017-09-04T07:41:47.379Z,1009.96
2017-09-04T07:42:27.918Z,1009.99
2017-09-04T07:43:08.443Z,1010
2017-09-04T07:43:48.980Z,1010
2017-09-04T07:44:29.514Z,1010
2017-09-04T07:45:10.060Z,1010.04
2017-09-04T07:45:50.583Z,1010.06
2017-09-04T07:46:31.128Z,1010.07
2017-09-04T07:47:11.662Z,1010.08
2017-09-04T07:47:52.206Z,1010.08
2017-09-04T07:48:32.782Z,1010.12
2017-09-04T07:49:13.301Z,1010.1
2017-09-04T07:49:53.854Z,1010.11
2017-09-04T07:50:34.427Z,1010.08
2017-09-04T07:51:14.988Z,1010.15
2017-09-04T07:51:55.512Z,1010.16
2017-09-04T07:52:36.051Z,1010.17
2017-09-04T07:53:16.571Z,1010.15
2017-09-04T07:53:57.092Z,1010.2
2017-09-04T07:54:37.642Z,1010.16
2017-09-04T07:55:18.171Z,1010.19
2017-09-04T07:55:58.714Z,1010.18
2017-09-04T07:56:39.217Z,1010.2
2017-09-04T07:57:19.769Z,1010.19
2017-09-04T07:58:00.291Z,1010.2
2017-09-04T07:58:40.856Z,1010.21
2017-09-04T07:59:21.352Z,1010.24
2017-09-04T08:00:01.892Z,1010.25
2017-09-04T08:00:42.430Z,1010.21
2017-09-04T08:01:22.952Z,1010.19
2017-09-04T08:02:03.503Z,1010.22
2017-09-04T08:02:44.025Z,1010.22
2017-09-04T08:03:24.577Z,1010.22
2017-09-04T08:04:05.119Z,1010.26
2017-09-04T08:04:45.662Z,1010.3
2017-09-04T08:05:26.194Z,1010.25
2017-09-04T08:06:06.726Z,1010.31
2017-09-04T08:06:47.253Z,1010.3
2017-09-04T08:07:27.789Z,1010.32
2017-09-04T08:08:08.317Z,1010.23
2017-09-04T08:08:48.845Z,1010.18
2017-09-04T08:09:29.380Z,1010.18
2017-09-04T08:10:09.924Z,1010.15
2017-09-04T08:10:50.459Z,1010.2
2017-09-04T08:11:31.012Z,1010.18
2017-09-04T08:12:11.523Z,1010.16